sensor_id;sensor_type;location;lat;lon;timestamp;temperature;humidity
6903;DHT22;20232;49.408;8.702;2023-04-24T11:08:21;19.30;99.90
6903;DHT22;20232;49.408;8.702;2023-04-24T11:10:50;19.30;99.90
6903;DHT22;20232;49.408;8.702;2023-04-24T11:13:22;19.30;99.90
6903;DHT22;20232;49.408;8.702;2023-04-24T11:16:26;19.30;99.90
6903;DHT22;20232;49.408;8.702;2023-04-24T11:21:45;19.40;99.90
6903;DHT22;20232;49.408;8.702;2023-04-24T11:26:57;19.40;99.90
6903;DHT22;20232;49.408;8.702;2023-04-24T11:29:37;19.40;99.90
6903;DHT22;20232;49.408;8.702;2023-04-24T14:51:05;19.30;97.40
6903;DHT22;20232;49.408;8.702;2023-04-24T14:53:31;19.10;96.80
6903;DHT22;20232;49.408;8.702;2023-04-24T14:55:56;19.00;97.00
6903;DHT22;20232;49.408;8.702;2023-04-24T14:58:22;18.90;97.10
6903;DHT22;20232;49.408;8.702;2023-04-24T15:00:47;18.90;97.10
6903;DHT22;20232;49.408;8.702;2023-04-24T15:03:17;18.90;97.10
6903;DHT22;20232;49.408;8.702;2023-04-24T15:05:43;18.90;97.00
6903;DHT22;20232;49.408;8.702;2023-04-24T15:08:09;18.90;97.00
6903;DHT22;20232;49.408;8.702;2023-04-24T15:10:34;18.90;96.90
6903;DHT22;20232;49.408;8.702;2023-04-24T15:13:00;18.90;97.00
6903;DHT22;20232;49.408;8.702;2023-04-24T15:19:09;18.90;97.60
6903;DHT22;20232;49.408;8.702;2023-04-24T15:24:26;19.00;95.60
6903;DHT22;20232;49.408;8.702;2023-04-24T15:26:52;17.60;97.00
6903;DHT22;20232;49.408;8.702;2023-04-24T15:29:18;15.90;98.40
6903;DHT22;20232;49.408;8.702;2023-04-24T15:31:43;14.70;99.90
6903;DHT22;20232;49.408;8.702;2023-04-24T15:34:09;13.80;99.90
6903;DHT22;20232;49.408;8.702;2023-04-24T15:36:35;13.10;99.90
6903;DHT22;20232;49.408;8.702;2023-04-24T15:39:02;12.50;99.90
6903;DHT22;20232;49.408;8.702;2023-04-24T15:41:28;12.20;99.90
6903;DHT22;20232;49.408;8.702;2023-04-24T15:43:53;12.00;99.90
6903;DHT22;20232;49.408;8.702;2023-04-24T15:46:19;11.90;99.90
6903;DHT22;20232;49.408;8.702;2023-04-24T15:48:44;11.80;99.90
6903;DHT22;20232;49.408;8.702;2023-04-24T15:51:10;11.60;99.90
6903;DHT22;20232;49.408;8.702;2023-04-24T15:53:36;11.60;99.90
6903;DHT22;20232;49.408;8.702;2023-04-24T15:56:01;11.50;99.90
6903;DHT22;20232;49.408;8.702;2023-04-24T15:58:27;11.50;99.90
6903;DHT22;20232;49.408;8.702;2023-04-24T16:00:53;11.60;99.90
6903;DHT22;20232;49.408;8.702;2023-04-24T16:03:19;11.90;99.90
6903;DHT22;20232;49.408;8.702;2023-04-24T16:05:45;12.80;99.90
6903;DHT22;20232;49.408;8.702;2023-04-24T16:08:11;13.80;99.90
6903;DHT22;20232;49.408;8.702;2023-04-24T16:10:38;13.80;99.90
6903;DHT22;20232;49.408;8.702;2023-04-24T16:13:04;13.60;99.90
6903;DHT22;20232;49.408;8.702;2023-04-24T16:15:29;13.60;99.90
6903;DHT22;20232;49.408;8.702;2023-04-24T16:17:55;13.40;99.90
6903;DHT22;20232;49.408;8.702;2023-04-24T16:20:21;13.20;99.90
6903;DHT22;20232;49.408;8.702;2023-04-24T16:22:46;13.00;99.90
6903;DHT22;20232;49.408;8.702;2023-04-24T16:25:12;12.70;99.90
6903;DHT22;20232;49.408;8.702;2023-04-24T16:27:38;12.50;99.90
6903;DHT22;20232;49.408;8.702;2023-04-24T16:30:04;12.30;99.90
6903;DHT22;20232;49.408;8.702;2023-04-24T16:32:30;12.30;99.90
6903;DHT22;20232;49.408;8.702;2023-04-24T16:34:55;12.40;99.90
6903;DHT22;20232;49.408;8.702;2023-04-24T16:37:21;12.60;99.90
6903;DHT22;20232;49.408;8.702;2023-04-24T16:39:46;12.60;99.90
6903;DHT22;20232;49.408;8.702;2023-04-24T16:42:13;12.40;99.90
6903;DHT22;20232;49.408;8.702;2023-04-24T16:44:40;12.20;99.90
6903;DHT22;20232;49.408;8.702;2023-04-24T16:47:07;12.10;99.90
6903;DHT22;20232;49.408;8.702;2023-04-24T16:49:33;11.90;99.90
6903;DHT22;20232;49.408;8.702;2023-04-24T16:51:59;11.90;99.90
6903;DHT22;20232;49.408;8.702;2023-04-24T16:54:25;11.90;99.90
6903;DHT22;20232;49.408;8.702;2023-04-24T16:56:52;11.80;99.90
6903;DHT22;20232;49.408;8.702;2023-04-24T16:59:18;12.10;99.90
6903;DHT22;20232;49.408;8.702;2023-04-24T17:01:43;12.30;99.90
6903;DHT22;20232;49.408;8.702;2023-04-24T17:04:09;12.60;99.90
6903;DHT22;20232;49.408;8.702;2023-04-24T17:06:35;12.70;99.90
6903;DHT22;20232;49.408;8.702;2023-04-24T17:09:01;12.70;99.90
6903;DHT22;20232;49.408;8.702;2023-04-24T17:11:28;12.60;99.90
6903;DHT22;20232;49.408;8.702;2023-04-24T17:13:53;12.50;99.90
6903;DHT22;20232;49.408;8.702;2023-04-24T17:16:19;12.40;99.90
6903;DHT22;20232;49.408;8.702;2023-04-24T17:18:44;12.30;99.90
6903;DHT22;20232;49.408;8.702;2023-04-24T17:21:10;12.10;99.90
6903;DHT22;20232;49.408;8.702;2023-04-24T17:23:36;12.00;99.90
6903;DHT22;20232;49.408;8.702;2023-04-24T17:26:01;12.00;99.90
6903;DHT22;20232;49.408;8.702;2023-04-24T17:28:29;12.00;99.90
6903;DHT22;20232;49.408;8.702;2023-04-24T17:30:55;12.00;99.90
6903;DHT22;20232;49.408;8.702;2023-04-24T17:33:25;12.00;99.90
6903;DHT22;20232;49.408;8.702;2023-04-24T17:35:50;12.00;99.90
6903;DHT22;20232;49.408;8.702;2023-04-24T17:38:17;11.90;99.90
6903;DHT22;20232;49.408;8.702;2023-04-24T17:40:43;11.80;99.90
6903;DHT22;20232;49.408;8.702;2023-04-24T17:43:13;11.70;99.90
6903;DHT22;20232;49.408;8.702;2023-04-24T17:45:43;11.80;99.90
6903;DHT22;20232;49.408;8.702;2023-04-24T17:48:10;11.80;99.90
6903;DHT22;20232;49.408;8.702;2023-04-24T17:50:36;11.70;99.90
6903;DHT22;20232;49.408;8.702;2023-04-24T17:53:02;11.70;99.90
6903;DHT22;20232;49.408;8.702;2023-04-24T17:55:27;11.70;99.90
6903;DHT22;20232;49.408;8.702;2023-04-24T17:57:53;11.60;99.90
6903;DHT22;20232;49.408;8.702;2023-04-24T18:00:19;11.60;99.90
6903;DHT22;20232;49.408;8.702;2023-04-24T18:02:44;11.60;99.90
6903;DHT22;20232;49.408;8.702;2023-04-24T18:05:10;11.50;99.90
6903;DHT22;20232;49.408;8.702;2023-04-24T18:07:36;11.40;99.90
6903;DHT22;20232;49.408;8.702;2023-04-24T18:10:02;11.30;99.90
6903;DHT22;20232;49.408;8.702;2023-04-24T18:12:27;11.30;99.90
6903;DHT22;20232;49.408;8.702;2023-04-24T18:14:53;11.30;99.90
6903;DHT22;20232;49.408;8.702;2023-04-24T18:17:19;11.30;99.90
6903;DHT22;20232;49.408;8.702;2023-04-24T18:19:45;11.30;99.90
6903;DHT22;20232;49.408;8.702;2023-04-24T18:22:10;11.20;99.90
6903;DHT22;20232;49.408;8.702;2023-04-24T18:24:36;11.20;99.90
6903;DHT22;20232;49.408;8.702;2023-04-24T18:27:01;11.20;99.90
6903;DHT22;20232;49.408;8.702;2023-04-24T18:29:28;11.20;99.90
6903;DHT22;20232;49.408;8.702;2023-04-24T18:31:53;11.20;99.90
6903;DHT22;20232;49.408;8.702;2023-04-24T18:34:19;11.10;99.90
6903;DHT22;20232;49.408;8.702;2023-04-24T18:36:45;11.00;99.90
6903;DHT22;20232;49.408;8.702;2023-04-24T18:39:10;11.00;99.90
6903;DHT22;20232;49.408;8.702;2023-04-24T18:41:36;11.00;99.90
6903;DHT22;20232;49.408;8.702;2023-04-24T18:44:02;11.10;99.90
6903;DHT22;20232;49.408;8.702;2023-04-24T18:46:27;11.00;99.90
6903;DHT22;20232;49.408;8.702;2023-04-24T18:48:53;11.00;99.90
6903;DHT22;20232;49.408;8.702;2023-04-24T18:51:18;11.00;99.90
6903;DHT22;20232;49.408;8.702;2023-04-24T18:53:44;11.00;99.90
6903;DHT22;20232;49.408;8.702;2023-04-24T18:56:10;11.00;99.90
6903;DHT22;20232;49.408;8.702;2023-04-24T18:58:35;11.00;99.90
6903;DHT22;20232;49.408;8.702;2023-04-24T19:01:01;11.00;99.90
6903;DHT22;20232;49.408;8.702;2023-04-24T19:03:27;11.00;99.90
6903;DHT22;20232;49.408;8.702;2023-04-24T19:05:54;11.00;99.90
6903;DHT22;20232;49.408;8.702;2023-04-24T19:08:19;11.00;99.90
6903;DHT22;20232;49.408;8.702;2023-04-24T19:10:45;11.00;99.90
6903;DHT22;20232;49.408;8.702;2023-04-24T19:13:10;10.90;99.90
6903;DHT22;20232;49.408;8.702;2023-04-24T19:15:36;10.90;99.90
6903;DHT22;20232;49.408;8.702;2023-04-24T19:18:01;10.90;99.90
6903;DHT22;20232;49.408;8.702;2023-04-24T19:20:27;10.90;99.90
6903;DHT22;20232;49.408;8.702;2023-04-24T19:22:53;10.90;99.90
6903;DHT22;20232;49.408;8.702;2023-04-24T19:25:19;10.90;99.90
6903;DHT22;20232;49.408;8.702;2023-04-24T19:27:45;10.90;99.90
6903;DHT22;20232;49.408;8.702;2023-04-24T19:30:10;10.90;99.90
6903;DHT22;20232;49.408;8.702;2023-04-24T19:32:36;10.90;99.90
6903;DHT22;20232;49.408;8.702;2023-04-24T19:35:02;10.90;99.90
6903;DHT22;20232;49.408;8.702;2023-04-24T19:37:28;10.90;99.90
6903;DHT22;20232;49.408;8.702;2023-04-24T19:39:56;10.90;99.90
6903;DHT22;20232;49.408;8.702;2023-04-24T19:42:22;10.80;99.90
6903;DHT22;20232;49.408;8.702;2023-04-24T19:44:47;10.70;99.90
6903;DHT22;20232;49.408;8.702;2023-04-24T19:47:13;10.60;99.90
6903;DHT22;20232;49.408;8.702;2023-04-24T19:49:38;10.50;99.90
6903;DHT22;20232;49.408;8.702;2023-04-24T19:52:04;10.50;99.90
6903;DHT22;20232;49.408;8.702;2023-04-24T19:54:29;10.50;99.90
6903;DHT22;20232;49.408;8.702;2023-04-24T19:56:55;10.40;99.90
6903;DHT22;20232;49.408;8.702;2023-04-24T19:59:21;10.40;99.90
6903;DHT22;20232;49.408;8.702;2023-04-24T20:01:46;10.40;99.90
6903;DHT22;20232;49.408;8.702;2023-04-24T20:04:12;10.40;99.90
6903;DHT22;20232;49.408;8.702;2023-04-24T20:06:38;10.50;99.90
6903;DHT22;20232;49.408;8.702;2023-04-24T20:09:03;10.40;99.90
6903;DHT22;20232;49.408;8.702;2023-04-24T20:11:32;10.40;99.90
6903;DHT22;20232;49.408;8.702;2023-04-24T20:13:58;10.40;99.90
6903;DHT22;20232;49.408;8.702;2023-04-24T20:16:25;10.40;99.90
6903;DHT22;20232;49.408;8.702;2023-04-24T20:18:51;10.40;99.90
6903;DHT22;20232;49.408;8.702;2023-04-24T20:21:16;10.50;99.90
6903;DHT22;20232;49.408;8.702;2023-04-24T20:23:42;10.40;99.90
6903;DHT22;20232;49.408;8.702;2023-04-24T20:26:08;10.40;99.90
6903;DHT22;20232;49.408;8.702;2023-04-24T20:28:35;10.40;99.90
6903;DHT22;20232;49.408;8.702;2023-04-24T20:31:01;10.30;99.90
6903;DHT22;20232;49.408;8.702;2023-04-24T20:33:27;10.30;99.90
6903;DHT22;20232;49.408;8.702;2023-04-24T20:35:55;10.20;99.90
6903;DHT22;20232;49.408;8.702;2023-04-24T20:38:20;10.30;99.90
6903;DHT22;20232;49.408;8.702;2023-04-24T20:40:47;10.30;99.90
6903;DHT22;20232;49.408;8.702;2023-04-24T20:43:13;10.30;99.90
6903;DHT22;20232;49.408;8.702;2023-04-24T20:45:39;10.20;99.90
6903;DHT22;20232;49.408;8.702;2023-04-24T20:48:05;10.20;99.90
6903;DHT22;20232;49.408;8.702;2023-04-24T20:50:32;10.20;99.90
6903;DHT22;20232;49.408;8.702;2023-04-24T20:52:58;10.20;99.90
6903;DHT22;20232;49.408;8.702;2023-04-24T20:55:24;10.20;99.90
6903;DHT22;20232;49.408;8.702;2023-04-24T20:57:51;10.20;99.90
6903;DHT22;20232;49.408;8.702;2023-04-24T21:00:16;10.30;99.90
6903;DHT22;20232;49.408;8.702;2023-04-24T21:02:42;10.30;99.90
6903;DHT22;20232;49.408;8.702;2023-04-24T21:05:07;10.30;99.90
6903;DHT22;20232;49.408;8.702;2023-04-24T21:07:33;10.30;99.90
6903;DHT22;20232;49.408;8.702;2023-04-24T21:09:59;10.30;99.90
6903;DHT22;20232;49.408;8.702;2023-04-24T21:12:24;10.30;99.90
6903;DHT22;20232;49.408;8.702;2023-04-24T21:14:50;10.30;99.90
6903;DHT22;20232;49.408;8.702;2023-04-24T21:17:15;10.30;99.90
6903;DHT22;20232;49.408;8.702;2023-04-24T21:19:41;10.30;99.90
6903;DHT22;20232;49.408;8.702;2023-04-24T21:22:07;10.30;99.90
6903;DHT22;20232;49.408;8.702;2023-04-24T21:24:32;10.30;99.90
6903;DHT22;20232;49.408;8.702;2023-04-24T21:26:58;10.20;99.90
6903;DHT22;20232;49.408;8.702;2023-04-24T21:29:23;10.20;99.90
6903;DHT22;20232;49.408;8.702;2023-04-24T21:31:49;10.10;99.90
6903;DHT22;20232;49.408;8.702;2023-04-24T21:34:14;10.10;99.90
6903;DHT22;20232;49.408;8.702;2023-04-24T21:36:40;10.10;99.90
6903;DHT22;20232;49.408;8.702;2023-04-24T21:39:05;10.10;99.90
6903;DHT22;20232;49.408;8.702;2023-04-24T21:41:31;10.10;99.90
6903;DHT22;20232;49.408;8.702;2023-04-24T21:43:57;10.10;99.90
6903;DHT22;20232;49.408;8.702;2023-04-24T21:46:23;10.00;99.90
6903;DHT22;20232;49.408;8.702;2023-04-24T21:48:49;10.00;99.90
6903;DHT22;20232;49.408;8.702;2023-04-24T21:51:14;10.00;99.90
6903;DHT22;20232;49.408;8.702;2023-04-24T21:53:40;9.90;99.90
6903;DHT22;20232;49.408;8.702;2023-04-24T21:56:06;10.00;99.90
6903;DHT22;20232;49.408;8.702;2023-04-24T21:58:32;10.00;99.90
6903;DHT22;20232;49.408;8.702;2023-04-24T22:00:58;10.00;99.90
6903;DHT22;20232;49.408;8.702;2023-04-24T22:03:23;10.00;99.90
6903;DHT22;20232;49.408;8.702;2023-04-24T22:05:49;10.00;99.90
6903;DHT22;20232;49.408;8.702;2023-04-24T22:08:15;10.00;99.90
6903;DHT22;20232;49.408;8.702;2023-04-24T22:10:40;10.00;99.90
6903;DHT22;20232;49.408;8.702;2023-04-24T22:13:06;10.00;99.90
6903;DHT22;20232;49.408;8.702;2023-04-24T22:15:31;9.90;99.90
6903;DHT22;20232;49.408;8.702;2023-04-24T22:17:57;9.90;99.90
6903;DHT22;20232;49.408;8.702;2023-04-24T22:20:23;9.90;99.90
6903;DHT22;20232;49.408;8.702;2023-04-24T22:22:50;9.90;99.90
6903;DHT22;20232;49.408;8.702;2023-04-24T22:25:16;9.90;99.90
6903;DHT22;20232;49.408;8.702;2023-04-24T22:27:42;9.90;99.90
6903;DHT22;20232;49.408;8.702;2023-04-24T22:30:08;9.80;99.90
6903;DHT22;20232;49.408;8.702;2023-04-24T22:32:34;9.80;99.90
6903;DHT22;20232;49.408;8.702;2023-04-24T22:35:00;9.80;99.90
6903;DHT22;20232;49.408;8.702;2023-04-24T22:37:26;9.80;99.90
6903;DHT22;20232;49.408;8.702;2023-04-24T22:39:51;9.80;99.90
6903;DHT22;20232;49.408;8.702;2023-04-24T22:42:17;9.80;99.90
6903;DHT22;20232;49.408;8.702;2023-04-24T22:44:43;9.80;99.90
6903;DHT22;20232;49.408;8.702;2023-04-24T22:47:08;9.80;99.90
6903;DHT22;20232;49.408;8.702;2023-04-24T22:49:34;9.80;99.90
6903;DHT22;20232;49.408;8.702;2023-04-24T22:52:00;9.80;99.90
6903;DHT22;20232;49.408;8.702;2023-04-24T22:54:30;9.80;99.90
6903;DHT22;20232;49.408;8.702;2023-04-24T22:56:56;9.80;99.90
6903;DHT22;20232;49.408;8.702;2023-04-24T22:59:22;9.80;99.90
